Decoded Metar for KIPJ (LINCOLNTON in NC, USA) (IATA:IPJ) | Meteo·Mobile Aviation Weather
aviador You're here:

KIPJ Decoded Metar

LINCOLNTON in NC, USA
Report Time2019-09-21 08:55:00
UTC Time2019-09-21 09:04:56
Flight Rules vfr VFR
WindCalm
Visibility9999 m
Phenomena:N/A
Clouds:N/A
CeilingNone
Temp13°C (ISA -0)
Dew Point13°C (100% RH)
QNH1026 hPa
Density Alt610 ft
Elevation876 ft
Report Wrong Elevation
Raw Report
KIPJ 210855Z AUTO 00000KT 10SM CLR 13/13 A3029 RMK AO2
T01250125=

Extra information for KIPJ:More info

Metar Taf Metar & Taf Last 4 Metars F.Rules Stats Wind Profile Meteogram Temp Stats Airport Information Weather charts Add Link Nearby VenuesMetar ALERT Operation Metar Decoded Social comments

AIRNAV info for KIPJ